KEZF

Shannon Airport

Fredericksburg, Virginia, USA
METAR KEZF 212130Z AUTO 06004KT 10SM CLR 28/22 A2975 RMK AO2 T02800219
Observed Flight Rules
Jun-21 @ 21:30 UTC (36 minutes ago) Visual Flight Rules
Wind Visibility Clouds
60° at 4 knots 10 miles
  • Clear skies
Temperatures Readings
Current 28°C / 82°F
Dewpoint 22°C / 72°F
Humidity 70%
Altimeter 29.75" Hg
Pressure 1007 hPa
Elevation 26
METAR KEZF 212130Z AUTO 06004KT 10SM CLR 28/22 A2975 RMK AO2 T02800219
Observed Flight Rules
Jun-21 @ 21:30 UTC
(36 minutes ago)
VFR
Wind Visibility
60° at 4 knots 10 miles
Clouds
  • Clear skies
Temperature Dewpoint
28°C / 82°F 22°C / 72°F
Humidity Altimeter Pressure
70% 29.75" Hg 1007 hPa